.
WxDataArchive / Data Records for 2015-12-12
2015-12-11 December 2015 2015-12-13

Data Records for Saturday, 12 December 2015

Time	Temp	Chill	HIndex	Humid	Dewpt	 Wind 	HiWind	WindDir	Rain 	Barom
-----	----	-----	------	-----	-----	------	------	-------	-----	-----
00:00	53.3	53.3	53.3	90	50.4	0	0	---	0.00	29.865 
00:05	53.2	53.2	53.2	90	50.3	0	1	248	0.00	29.865 
00:10	53.2	53.2	53.2	90	50.3	0	1	248	0.00	29.865 
00:15	53.1	53.1	53.1	91	50.5	0	2	248	0.00	29.861 
00:20	53.2	53.2	53.2	91	50.6	0	0	---	0.00	29.861 
00:25	53.2	53.2	53.2	91	50.6	0	1	248	0.00	29.861 
00:30	53.2	53.2	53.2	91	50.6	0	1	248	0.00	29.865 
00:35	53.2	53.2	53.2	91	50.6	0	1	248	0.00	29.865 
00:40	53.2	53.2	53.2	91	50.6	0	1	248	0.00	29.865 
00:45	53.2	53.2	53.2	91	50.6	0	0	---	0.00	29.857 
00:50	53.1	53.1	53.1	91	50.5	0	1	248	0.00	29.857 
00:55	52.9	52.9	52.9	91	50.3	0	1	248	0.00	29.857 
01:00	52.9	52.9	52.9	91	50.3	0	1	248	0.00	29.858 
01:05	52.8	52.8	52.8	92	50.5	0	1	248	0.00	29.858 
01:10	52.9	52.9	52.9	92	50.6	0	1	248	0.00	29.858 
01:15	52.9	52.9	52.9	92	50.6	0	0	---	0.00	29.855 
01:20	52.9	52.9	52.9	92	50.6	0	1	248	0.00	29.855 
01:25	52.9	52.9	52.9	92	50.6	0	0	---	0.00	29.855 
01:30	52.9	52.9	52.9	92	50.6	0	1	248	0.00	29.854 
01:35	53.1	53.1	53.1	92	50.8	0	1	248	0.00	29.854 
01:40	53.1	53.1	53.1	92	50.8	0	1	248	0.00	29.854 
01:45	53.1	53.1	53.1	92	50.8	0	1	248	0.00	29.850 
01:50	52.9	52.9	52.9	92	50.6	0	1	248	0.00	29.850 
01:55	52.9	52.9	52.9	92	50.6	0	1	248	0.00	29.850 
02:00	53.1	53.1	53.1	92	50.8	0	2	248	0.00	29.854 
02:05	53.1	53.1	53.1	92	50.8	0	1	248	0.00	29.854 
02:10	53.1	53.1	53.1	92	50.8	0	1	248	0.00	29.854 
02:15	53.1	53.1	53.1	92	50.8	0	1	248	0.00	29.852 
02:20	53.1	53.1	53.1	92	50.8	0	1	248	0.00	29.852 
02:25	53.1	53.1	53.1	92	50.8	0	1	248	0.00	29.852 
02:30	53.1	53.1	53.1	92	50.8	0	1	248	0.00	29.851 
02:35	53.1	53.1	53.1	92	50.8	0	0	---	0.00	29.851 
02:40	53.1	53.1	53.1	92	50.8	0	0	---	0.00	29.851 
02:45	53.2	53.2	53.2	92	50.9	0	1	248	0.00	29.853 
02:50	53.2	53.2	53.2	92	50.9	0	0	---	0.00	29.853 
02:55	53.2	53.2	53.2	92	50.9	0	0	---	0.00	29.853 
03:00	53.2	53.2	53.2	92	50.9	0	0	---	0.00	29.855 
03:05	53.1	53.1	53.1	92	50.8	0	0	---	0.00	29.855 
03:10	52.8	52.8	52.8	92	50.5	0	1	248	0.00	29.855 
03:15	52.5	52.5	52.5	92	50.2	0	0	---	0.00	29.853 
03:20	52.3	52.3	52.3	92	50.0	0	0	---	0.00	29.853 
03:25	51.9	51.9	51.9	92	49.6	0	0	---	0.00	29.853 
03:30	51.6	51.6	51.6	92	49.4	0	0	---	0.00	29.852 
03:35	51.3	51.3	51.3	92	49.1	0	0	---	0.00	29.852 
03:40	51.1	51.1	51.1	92	48.9	0	0	---	0.00	29.852 
03:45	50.8	50.8	50.8	92	48.6	0	0	---	0.00	29.846 
03:50	50.5	50.5	50.5	92	48.3	0	0	---	0.00	29.846 
03:55	50.4	50.4	50.4	92	48.2	0	0	---	0.00	29.846 
04:00	50.2	50.2	50.2	93	48.3	0	0	---	0.00	29.854 
04:05	50.1	50.1	50.1	93	48.2	0	0	---	0.00	29.854 
04:10	50.2	50.2	50.2	93	48.3	0	0	---	0.00	29.854 
04:15	50.2	50.2	50.2	93	48.3	0	0	---	0.00	29.858 
04:20	50.2	50.2	50.2	93	48.3	0	0	---	0.00	29.858 
04:25	50.2	50.2	50.2	93	48.3	0	0	---	0.00	29.858 
04:30	50.4	50.4	50.4	94	48.7	0	0	---	0.00	29.846 
04:35	50.5	50.5	50.5	94	48.8	0	0	---	0.00	29.846 
04:40	50.7	50.7	50.7	94	49.0	0	0	---	0.00	29.846 
04:45	50.7	50.7	50.7	94	49.0	0	0	---	0.00	29.846 
04:50	50.7	50.7	50.7	94	49.0	0	0	---	0.00	29.846 
04:55	50.7	50.7	50.7	94	49.0	0	0	---	0.00	29.846 
05:00	50.8	50.8	50.8	94	49.1	0	0	---	0.00	29.857 
05:05	51.1	51.1	51.1	95	49.7	0	0	---	0.00	29.857 
05:10	52.0	52.0	52.0	95	50.6	0	0	---	0.00	29.857 
05:15	52.6	52.6	52.6	95	51.2	0	0	---	0.00	29.859 
05:20	52.9	52.9	52.9	95	51.5	0	0	---	0.00	29.859 
05:25	53.2	53.2	53.2	95	51.8	0	0	---	0.00	29.859 
05:30	53.5	53.5	53.5	95	52.1	0	1	248	0.00	29.862 
05:35	53.6	53.6	53.6	95	52.2	0	1	248	0.00	29.862 
05:40	53.9	53.9	53.9	95	52.5	0	0	---	0.00	29.862 
05:45	54.1	54.1	54.1	95	52.7	0	0	---	0.00	29.864 
05:50	54.1	54.1	54.1	95	52.7	0	0	---	0.00	29.864 
05:55	53.9	53.9	53.9	95	52.5	0	0	---	0.00	29.864 
06:00	53.8	53.8	53.8	95	52.4	0	0	---	0.00	29.869 
06:05	53.6	53.6	53.6	95	52.2	0	0	---	0.00	29.869 
06:10	53.5	53.5	53.5	95	52.1	0	0	---	0.00	29.869 
06:15	53.3	53.3	53.3	95	51.9	0	0	---	0.00	29.874 
06:20	53.5	53.5	53.5	96	52.4	0	0	---	0.00	29.874 
06:25	53.8	53.8	53.8	96	52.7	0	0	---	0.00	29.874 
06:30	53.9	53.9	53.9	96	52.8	0	1	248	0.00	29.876 
06:35	54.1	54.1	54.1	96	53.0	0	0	---	0.00	29.876 
06:40	54.2	54.2	54.2	96	53.1	0	0	---	0.00	29.876 
06:45	54.5	54.5	54.5	96	53.4	0	0	---	0.00	29.889 
06:50	54.7	54.7	54.7	96	53.6	0	1	248	0.00	29.889 
06:55	55.0	55.0	55.0	96	53.9	0	0	---	0.00	29.889 
07:00	55.1	55.1	55.1	96	54.0	0	0	---	0.00	29.893 
07:05	55.4	55.4	55.4	96	54.3	0	0	---	0.00	29.893 
07:10	55.6	55.6	55.6	96	54.5	0	0	---	0.00	29.893 
07:15	55.7	55.7	55.7	96	54.6	0	1	248	0.00	29.900 
07:20	55.9	55.9	55.9	96	54.8	0	1	248	0.00	29.900 
07:25	56.0	56.0	56.0	96	54.9	0	0	---	0.00	29.900 
07:30	56.2	56.2	56.2	96	55.1	0	0	---	0.00	29.903 
07:35	56.5	56.5	56.5	96	55.4	0	1	248	0.00	29.903 
07:40	56.6	56.6	56.6	96	55.5	0	0	---	0.00	29.903 
07:45	56.6	56.6	56.6	96	55.5	0	0	---	0.00	29.903 
07:50	56.7	56.7	56.7	96	55.6	0	1	248	0.00	29.903 
07:55	56.9	56.9	56.9	96	55.8	0	0	---	0.00	29.903 
08:00	56.9	56.9	56.9	96	55.8	0	0	---	0.00	29.905 
08:05	56.9	56.9	56.9	96	55.8	0	1	248	0.00	29.905 
08:10	56.7	56.7	56.7	96	55.6	0	0	---	0.00	29.905 
08:15	56.7	56.7	56.7	96	55.6	0	0	---	0.00	29.903 
08:20	56.6	56.6	56.6	96	55.5	0	0	---	0.00	29.903 
08:25	56.6	56.6	56.6	96	55.5	0	1	248	0.00	29.903 
08:30	56.6	56.6	56.6	96	55.5	0	0	---	0.00	29.911 
08:35	56.7	56.7	56.7	96	55.6	0	1	248	0.00	29.911 
08:40	56.9	56.9	56.9	96	55.8	0	0	---	0.00	29.911 
08:45	57.0	57.0	57.0	96	55.9	0	1	248	0.00	29.915 
08:50	57.0	57.0	57.0	96	55.9	0	1	248	0.00	29.915 
08:55	57.2	57.2	57.2	96	56.1	0	1	248	0.00	29.915 
09:00	57.3	57.3	57.3	96	56.2	0	1	248	0.00	29.920 
09:05	57.3	57.3	57.3	96	56.2	0	1	248	0.00	29.920 
09:10	57.5	57.5	57.5	96	56.4	0	1	248	0.00	29.920 
09:15	57.5	57.5	57.5	96	56.4	0	1	248	0.00	29.931 
09:20	57.6	57.6	57.6	96	56.5	0	1	248	0.00	29.931 
09:25	57.8	57.8	57.8	96	56.7	0	1	248	0.00	29.931 
09:30	57.8	57.8	57.8	96	56.7	0	2	248	0.00	29.931 
09:35	57.8	57.8	57.8	96	56.7	0	1	248	0.00	29.931 
09:40	57.8	57.8	57.8	96	56.7	0	0	---	0.00	29.931 
09:45	57.8	57.8	57.8	96	56.7	0	1	248	0.00	29.930 
09:50	58.0	58.0	58.0	96	56.9	0	1	248	0.00	29.930 
09:55	58.1	58.1	58.1	96	57.0	0	1	248	0.00	29.930 
10:00	58.3	58.3	58.3	96	57.2	0	0	---	0.00	29.931 
10:05	58.6	58.6	58.6	96	57.5	0	1	248	0.00	29.931 
10:10	58.7	58.7	58.7	96	57.6	0	2	248	0.00	29.931 
10:15	59.0	59.0	59.0	96	57.9	0	2	248	0.00	29.931 
10:20	59.2	59.2	59.2	96	58.1	0	2	248	0.00	29.931 
10:25	59.3	59.3	59.3	96	58.2	0	1	248	0.00	29.931 
10:30	59.5	59.5	59.5	96	58.4	0	1	248	0.00	29.944 
10:35	59.6	59.6	59.6	96	58.5	0	1	248	0.00	29.944 
10:40	59.8	59.8	59.8	96	58.7	0	1	248	0.00	29.944 
10:45	60.1	60.1	60.1	96	59.0	0	1	248	0.00	29.947 
10:50	60.2	60.2	60.2	96	59.1	0	2	248	0.00	29.947 
10:55	60.4	60.4	60.4	96	59.3	0	2	248	0.00	29.947 
11:00	60.5	60.5	60.5	96	59.4	0	2	248	0.00	29.952 
11:05	60.7	60.7	60.7	95	59.3	0	2	248	0.00	29.952 
11:10	60.9	60.9	60.9	95	59.5	0	3	248	0.00	29.952 
11:15	61.0	61.0	61.0	95	59.6	1	3	248	0.00	29.950 
11:20	61.2	61.2	61.2	94	59.5	0	3	248	0.00	29.950 
11:25	61.3	61.3	61.3	94	59.6	0	3	248	0.00	29.950 
11:30	61.6	61.6	61.6	94	59.9	0	2	248	0.00	29.957 
11:35	61.8	61.8	61.8	93	59.8	0	2	248	0.00	29.957 
11:40	62.1	62.1	62.1	92	59.7	0	2	248	0.00	29.957 
11:45	62.3	62.3	62.3	92	59.9	1	4	248	0.00	29.956 
11:50	62.4	62.4	62.4	91	59.7	1	2	292	0.00	29.956 
11:55	62.6	62.6	62.6	90	59.6	1	4	292	0.00	29.956 
12:00	62.7	62.7	62.7	89	59.4	0	3	270	0.00	29.949 
12:05	62.9	62.9	62.9	89	59.6	0	2	270	0.00	29.949 
12:10	63.2	63.2	63.2	88	59.6	0	3	270	0.00	29.949 
12:15	63.4	63.4	63.4	87	59.5	0	2	270	0.00	29.944 
12:20	63.5	63.5	63.5	86	59.2	1	4	270	0.00	29.944 
12:25	63.7	63.7	63.7	85	59.1	1	3	248	0.00	29.944 
12:30	64.2	64.2	64.2	84	59.3	1	4	248	0.00	29.942 
12:35	64.5	64.5	64.5	83	59.2	0	3	248	0.00	29.942 
12:40	64.7	64.7	64.7	82	59.1	0	3	248	0.00	29.942 
12:45	64.7	64.7	64.7	82	59.1	0	2	248	0.00	29.941 
12:50	64.8	64.8	64.8	81	58.8	1	3	248	0.00	29.941 
12:55	65.0	65.0	65.0	81	59.0	0	3	248	0.00	29.941 
13:00	65.2	65.2	65.2	81	59.2	0	2	248	0.00	29.940 
13:05	65.3	65.3	65.3	80	59.0	1	3	248	0.00	29.940 
13:10	65.3	65.3	65.3	79	58.6	1	3	248	0.00	29.940 
13:15	65.5	65.5	65.5	79	58.8	1	2	248	0.00	29.942 
13:20	65.6	65.6	65.6	79	58.9	0	2	248	0.00	29.942 
13:25	66.0	66.0	66.0	77	58.6	1	4	248	0.00	29.942 
13:30	66.4	66.4	66.4	76	58.6	1	4	248	0.00	29.942 
13:35	66.8	66.8	66.8	75	58.6	1	3	248	0.00	29.942 
13:40	67.1	67.1	67.1	74	58.5	1	5	248	0.00	29.942 
13:45	67.1	67.1	67.1	74	58.5	2	4	248	0.00	29.941 
13:50	67.3	67.3	67.3	74	58.7	1	3	248	0.00	29.941 
13:55	67.4	67.4	67.4	73	58.4	1	5	248	0.00	29.941 
14:00	67.4	67.4	67.4	73	58.4	1	4	248	0.00	29.938 
14:05	67.4	67.4	67.4	73	58.4	1	4	248	0.00	29.938 
14:10	67.6	67.6	67.6	73	58.6	1	4	248	0.00	29.938 
14:15	67.8	67.8	67.8	72	58.4	1	3	270	0.00	29.947 
14:20	67.6	67.6	67.6	72	58.2	1	4	248	0.00	29.947 
14:25	67.6	67.6	67.6	73	58.6	1	3	248	0.00	29.947 
14:30	67.6	67.6	67.6	73	58.6	1	2	248	0.00	29.942 
14:35	67.4	67.4	67.4	73	58.4	0	2	248	0.00	29.942 
14:40	67.4	67.4	67.4	73	58.4	0	2	248	0.00	29.942 
14:45	67.3	67.3	67.3	73	58.3	1	4	248	0.00	29.939 
14:50	67.3	67.3	67.3	73	58.3	0	2	248	0.00	29.939 
14:55	67.4	67.4	67.4	73	58.4	1	5	248	0.00	29.939 
15:00	67.4	67.4	67.4	72	58.1	0	2	248	0.00	29.945 
15:05	67.4	67.4	67.4	73	58.4	0	4	248	0.00	29.945 
15:10	67.3	67.3	67.3	73	58.3	0	4	248	0.00	29.945 
15:15	67.3	67.3	67.3	73	58.3	0	3	248	0.00	29.951 
15:20	67.3	67.3	67.3	73	58.3	1	5	248	0.00	29.951 
15:25	67.3	67.3	67.3	73	58.3	1	3	248	0.00	29.951 
15:30	67.1	67.1	67.1	73	58.1	2	5	248	0.00	29.955 
15:35	67.3	67.3	67.3	73	58.3	1	3	248	0.00	29.955 
15:40	67.1	67.1	67.1	73	58.1	1	5	248	0.00	29.955 
15:45	67.1	67.1	67.1	73	58.1	1	4	248	0.00	29.969 
15:50	67.1	67.1	67.1	73	58.1	2	4	248	0.00	29.969 
15:55	66.9	66.9	66.9	74	58.3	1	3	248	0.00	29.969 
16:00	66.9	66.9	66.9	74	58.3	0	1	248	0.00	29.973 
16:05	66.8	66.8	66.8	74	58.2	0	2	248	0.00	29.973 
16:10	66.8	66.8	66.8	75	58.6	0	2	248	0.00	29.973 
16:15	66.8	66.8	66.8	75	58.6	1	2	248	0.00	29.972 
16:20	66.8	66.8	66.8	76	59.0	1	3	248	0.00	29.972 
16:25	66.6	66.6	66.6	76	58.8	0	1	248	0.00	29.972 
16:30	66.4	66.4	66.4	77	59.0	0	3	248	0.00	29.972 
16:35	66.3	66.3	66.3	77	58.9	0	2	248	0.00	29.972 
16:40	66.1	66.1	66.1	77	58.7	0	1	248	0.00	29.972 
16:45	66.0	66.0	66.0	78	58.9	0	1	248	0.00	29.989 
16:50	65.8	65.8	65.8	78	58.7	0	0	---	0.00	29.989 
16:55	65.6	65.6	65.6	79	58.9	0	0	---	0.00	29.989 
17:00	65.5	65.5	65.5	79	58.8	0	1	248	0.00	29.994 
17:05	65.5	65.5	65.5	80	59.2	0	1	248	0.00	29.994 
17:10	65.3	65.3	65.3	80	59.0	0	1	248	0.00	29.994 
17:15	65.2	65.2	65.2	80	58.9	0	1	248	0.00	29.992 
17:20	65.0	65.0	65.0	81	59.0	0	0	---	0.00	29.992 
17:25	64.8	64.8	64.8	81	58.8	0	1	248	0.00	29.992 
17:30	64.7	64.7	64.7	81	58.7	0	0	---	0.00	30.001 
17:35	64.5	64.5	64.5	82	58.9	0	0	---	0.00	30.001 
17:40	64.3	64.3	64.3	82	58.7	0	0	---	0.00	30.001 
17:45	64.2	64.2	64.2	83	58.9	0	0	---	0.00	30.004 
17:50	63.9	63.9	63.9	83	58.6	0	0	---	0.00	30.004 
17:55	63.7	63.7	63.7	83	58.4	0	0	---	0.00	30.004 
18:00	63.5	63.5	63.5	84	58.6	0	0	---	0.00	30.006 
18:05	63.4	63.4	63.4	84	58.5	0	0	---	0.00	30.006 
18:10	63.4	63.4	63.4	85	58.8	0	0	---	0.00	30.006 
18:15	63.2	63.2	63.2	85	58.6	0	0	---	0.00	30.013 
18:20	63.1	63.1	63.1	85	58.5	0	0	---	0.00	30.013 
18:25	62.9	62.9	62.9	85	58.3	0	0	---	0.00	30.013 
18:30	62.7	62.7	62.7	85	58.1	0	0	---	0.00	30.014 
18:35	62.7	62.7	62.7	86	58.4	0	0	---	0.00	30.014 
18:40	62.6	62.6	62.6	86	58.3	0	0	---	0.00	30.014 
18:45	62.4	62.4	62.4	87	58.5	0	0	---	0.00	30.017 
18:50	62.4	62.4	62.4	87	58.5	0	0	---	0.00	30.017 
18:55	62.3	62.3	62.3	87	58.4	0	0	---	0.00	30.017 
19:00	62.3	62.3	62.3	88	58.7	0	0	---	0.00	30.013 
19:05	62.1	62.1	62.1	88	58.5	0	0	---	0.00	30.013 
19:10	62.0	62.0	62.0	88	58.4	0	0	---	0.00	30.013 
19:15	62.0	62.0	62.0	88	58.4	0	0	---	0.00	30.006 
19:20	62.0	62.0	62.0	89	58.7	0	0	---	0.00	30.006 
19:25	62.0	62.0	62.0	89	58.7	0	0	---	0.00	30.006 
19:30	62.0	62.0	62.0	89	58.7	0	0	---	0.00	30.004 
19:35	62.1	62.1	62.1	89	58.8	0	0	---	0.00	30.004 
19:40	62.1	62.1	62.1	89	58.8	0	1	248	0.00	30.004 
19:45	62.1	62.1	62.1	89	58.8	0	0	---	0.00	30.005 
19:50	62.1	62.1	62.1	89	58.8	0	0	---	0.00	30.005 
19:55	62.1	62.1	62.1	89	58.8	0	0	---	0.00	30.005 
20:00	62.1	62.1	62.1	89	58.8	0	0	---	0.00	30.012 
20:05	62.1	62.1	62.1	89	58.8	0	0	---	0.00	30.012 
20:10	62.1	62.1	62.1	89	58.8	0	0	---	0.00	30.012 
20:15	62.3	62.3	62.3	89	59.0	0	0	---	0.00	30.018 
20:20	62.3	62.3	62.3	89	59.0	0	0	---	0.00	30.018 
20:25	62.3	62.3	62.3	89	59.0	0	1	248	0.00	30.018 
20:30	62.4	62.4	62.4	89	59.1	0	0	---	0.00	30.021 
20:35	62.4	62.4	62.4	89	59.1	0	0	---	0.00	30.021 
20:40	62.6	62.6	62.6	89	59.3	0	1	248	0.00	30.021 
20:45	62.7	62.7	62.7	88	59.1	0	0	---	0.00	30.022 
20:50	62.9	62.9	62.9	88	59.3	0	1	248	0.00	30.022 
20:55	62.9	62.9	62.9	88	59.3	0	1	248	0.00	30.022 
21:00	63.1	63.1	63.1	88	59.5	0	1	248	0.00	30.021 
21:05	63.1	63.1	63.1	88	59.5	0	1	248	0.00	30.021 
21:10	63.1	63.1	63.1	87	59.2	0	1	248	0.00	30.021 
21:15	62.9	62.9	62.9	87	59.0	0	0	---	0.00	30.019 
21:20	62.7	62.7	62.7	87	58.8	0	2	248	0.00	30.019 
21:25	62.4	62.4	62.4	87	58.5	0	1	248	0.00	30.019 
21:30	62.3	62.3	62.3	87	58.4	0	1	248	0.00	30.018 
21:35	62.0	62.0	62.0	87	58.1	0	0	---	0.00	30.018 
21:40	61.6	61.6	61.6	88	58.0	0	0	---	0.00	30.018 
21:45	61.5	61.5	61.5	88	57.9	0	0	---	0.00	30.017 
21:50	61.3	61.3	61.3	88	57.7	0	0	---	0.00	30.017 
21:55	61.2	61.2	61.2	88	57.6	0	1	248	0.00	30.017 
22:00	60.9	60.9	60.9	88	57.3	0	0	---	0.00	30.016 
22:05	60.7	60.7	60.7	89	57.4	0	0	---	0.00	30.016 
22:10	60.7	60.7	60.7	89	57.4	0	0	---	0.00	30.016 
22:15	60.9	60.9	60.9	90	57.9	0	1	248	0.00	30.012 
22:20	61.0	61.0	61.0	90	58.0	0	1	248	0.00	30.012 
22:25	61.2	61.2	61.2	90	58.2	0	1	248	0.00	30.012 
22:30	61.3	61.3	61.3	90	58.3	0	1	248	0.00	30.016 
22:35	61.5	61.5	61.5	89	58.2	0	1	248	0.00	30.016 
22:40	61.6	61.6	61.6	89	58.3	0	1	248	0.00	30.016 
22:45	61.8	61.8	61.8	89	58.5	0	1	248	0.00	30.017 
22:50	62.0	62.0	62.0	89	58.7	0	2	248	0.00	30.017 
22:55	62.0	62.0	62.0	88	58.4	0	2	248	0.00	30.017 
23:00	62.1	62.1	62.1	88	58.5	0	1	248	0.00	30.014 
23:05	62.1	62.1	62.1	88	58.5	0	2	248	0.00	30.014 
23:10	62.1	62.1	62.1	88	58.5	0	1	248	0.00	30.014 
23:15	62.3	62.3	62.3	88	58.7	0	1	248	0.00	30.006 
23:20	62.3	62.3	62.3	87	58.4	0	3	248	0.00	30.006 
23:25	62.3	62.3	62.3	87	58.4	0	1	248	0.00	30.006 
23:30	62.4	62.4	62.4	87	58.5	0	1	248	0.00	30.013 
23:35	62.4	62.4	62.4	87	58.5	0	1	248	0.00	30.013 
23:40	62.4	62.4	62.4	87	58.5	0	0	---	0.00	30.013 
23:45	62.4	62.4	62.4	87	58.5	0	4	90	0.00	30.009 
23:50	62.4	62.4	62.4	86	58.2	0	0	---	0.00	30.009 
23:55	62.3	62.3	62.3	86	58.1	0	1	90	0.00	30.009 

CoCoRaHS
IN-AL-39
A2 Web Hosting
Creative Commons License
GoDaddy
search engine by freefind advanced

loaded 2018-11-21 00:30:19 • last modified 2010-11-18 10:43:29
Privacy PolicyDisclaimer
• wx.awcolley.com is powered by PmWiki v.2002016 •
• all content (unless otherwise noted) © 2018 A W Colley